createdAt,value
2017-04-12T00:00:40.016Z,0
2017-04-12T00:01:39.999Z,0
2017-04-12T00:02:39.674Z,0
2017-04-12T00:03:39.981Z,0
2017-04-12T00:04:40.117Z,0
2017-04-12T00:05:39.648Z,0
2017-04-12T00:06:39.981Z,0
2017-04-12T00:07:39.936Z,0
2017-04-12T00:08:39.296Z,0
2017-04-12T00:09:39.598Z,0
2017-04-12T00:10:39.583Z,0
2017-04-12T00:11:39.566Z,0
2017-04-12T00:12:40.129Z,0
2017-04-12T00:13:39.868Z,0
2017-04-12T00:14:39.846Z,0
2017-04-12T00:15:39.523Z,0
2017-04-12T00:16:40.043Z,0
2017-04-12T00:17:39.499Z,0
2017-04-12T00:18:39.807Z,0
2017-04-12T00:19:39.791Z,0
2017-04-12T00:20:39.472Z,0
2017-04-12T00:21:39.773Z,0
2017-04-12T00:22:39.764Z,0
2017-04-12T00:23:39.744Z,0
2017-04-12T00:24:39.733Z,0
2017-04-12T00:25:39.719Z,0
2017-04-12T00:26:39.715Z,0
2017-04-12T00:27:39.385Z,0
2017-04-12T00:28:39.690Z,0
2017-04-12T00:29:39.673Z,0
2017-04-12T00:30:39.666Z,0
2017-04-12T00:31:39.336Z,0
2017-04-12T00:32:39.644Z,0
2017-04-12T00:33:39.631Z,0
2017-04-12T00:34:39.628Z,0
2017-04-12T00:35:39.285Z,0
2017-04-12T00:36:39.588Z,0
2017-04-12T00:37:39.584Z,0
2017-04-12T00:38:39.570Z,0
2017-04-12T00:39:39.244Z,0
2017-04-12T00:40:39.545Z,0
2017-04-12T00:41:39.531Z,0
2017-04-12T00:42:39.523Z,0
2017-04-12T00:43:39.508Z,0
2017-04-12T00:44:39.187Z,0
2017-04-12T00:45:39.169Z,0
2017-04-12T00:46:39.473Z,0
2017-04-12T00:47:39.465Z,0
2017-04-12T00:48:39.455Z,0
2017-04-12T00:49:39.125Z,0
2017-04-12T00:50:39.429Z,0
2017-04-12T00:51:39.416Z,0
2017-04-12T00:52:39.406Z,0
2017-04-12T00:53:39.396Z,0
2017-04-12T00:54:39.384Z,0
2017-04-12T00:55:39.374Z,0
2017-04-12T00:56:39.044Z,0
2017-04-12T00:57:39.342Z,0
2017-04-12T00:58:39.331Z,0
2017-04-12T00:59:39.360Z,0
2017-04-12T01:00:38.994Z,0
2017-04-12T01:01:39.299Z,0
2017-04-12T01:02:39.287Z,0
2017-04-12T01:03:39.276Z,0
2017-04-12T01:04:38.949Z,0
2017-04-12T01:05:39.245Z,0
2017-04-12T01:06:38.922Z,0
2017-04-12T01:07:39.229Z,0
2017-04-12T01:08:39.174Z,0
2017-04-12T01:09:39.200Z,0
2017-04-12T01:10:39.188Z,0
2017-04-12T01:11:39.176Z,0
2017-04-12T01:12:39.165Z,0
2017-04-12T01:13:39.157Z,0
2017-04-12T01:14:38.833Z,0
2017-04-12T01:15:39.132Z,0
2017-04-12T01:16:39.114Z,0
2017-04-12T01:17:39.107Z,0
2017-04-12T01:18:39.095Z,0
2017-04-12T01:19:39.086Z,0
2017-04-12T01:20:39.075Z,0
2017-04-12T01:21:39.064Z,0
2017-04-12T01:22:39.051Z,0
2017-04-12T01:23:39.043Z,0
2017-04-12T01:24:38.398Z,0
2017-04-12T01:25:38.703Z,0
2017-04-12T01:26:38.999Z,0
2017-04-12T01:27:38.421Z,0
2017-04-12T01:28:38.665Z,0
2017-04-12T01:29:38.655Z,0
2017-04-12T01:30:38.642Z,0
2017-04-12T01:31:38.948Z,0
2017-04-12T01:32:38.928Z,0
2017-04-12T01:33:38.697Z,0
2017-04-12T01:34:39.067Z,0
2017-04-12T01:35:38.266Z,0
2017-04-12T01:36:38.877Z,0
2017-04-12T01:37:39.389Z,0
2017-04-12T01:38:38.866Z,0
2017-04-12T01:39:38.847Z,0
2017-04-12T01:40:39.411Z,0
2017-04-12T01:41:38.824Z,0
2017-04-12T01:42:38.507Z,0
2017-04-12T01:43:39.495Z,0
2017-04-12T01:44:38.653Z,0
2017-04-12T01:45:39.797Z,0
2017-04-12T01:46:38.763Z,0
2017-04-12T01:47:38.437Z,0
2017-04-12T01:48:40.348Z,0
2017-04-12T01:49:38.764Z,0
2017-04-12T01:50:38.405Z,0
2017-04-12T01:51:39.789Z,0
2017-04-12T01:52:38.408Z,0
2017-04-12T01:53:38.684Z,0
2017-04-12T01:54:39.364Z,0
2017-04-12T01:55:38.918Z,0
2017-04-12T01:56:38.526Z,0
2017-04-12T01:57:38.319Z,0
2017-04-12T01:58:38.306Z,0
2017-04-12T01:59:39.425Z,0
2017-04-12T02:00:38.279Z,0
2017-04-12T02:01:38.593Z,0
2017-04-12T02:02:39.291Z,0
2017-04-12T02:03:38.565Z,0
2017-04-12T02:04:38.552Z,0
2017-04-12T02:05:39.347Z,0
2017-04-12T02:06:38.527Z,0
2017-04-12T02:07:38.197Z,0
2017-04-12T02:08:39.323Z,0
2017-04-12T02:09:38.496Z,0
2017-04-12T02:10:38.162Z,0
2017-04-12T02:11:38.808Z,0
2017-04-12T02:12:38.457Z,0
2017-04-12T02:13:38.133Z,0
2017-04-12T02:14:39.018Z,0
2017-04-12T02:15:38.419Z,0
2017-04-12T02:16:38.413Z,0
2017-04-12T02:17:38.457Z,0
2017-04-12T02:18:38.385Z,0
2017-04-12T02:19:38.056Z,0
2017-04-12T02:20:38.696Z,0
2017-04-12T02:21:38.343Z,0
2017-04-12T02:22:38.333Z,0
2017-04-12T02:23:38.321Z,0
2017-04-12T02:24:38.311Z,0
2017-04-12T02:25:37.987Z,0
2017-04-12T02:26:37.411Z,0
2017-04-12T02:27:38.453Z,0
2017-04-12T02:28:38.356Z,0
2017-04-12T02:29:38.255Z,0
2017-04-12T02:30:37.924Z,0
2017-04-12T02:31:38.360Z,0
2017-04-12T02:32:37.900Z,0
2017-04-12T02:33:37.938Z,0
2017-04-12T02:34:38.301Z,0
2017-04-12T02:35:37.594Z,0
2017-04-12T02:36:38.193Z,0
2017-04-12T02:37:37.857Z,0
2017-04-12T02:38:38.150Z,0
2017-04-12T02:39:38.132Z,0
2017-04-12T02:40:38.227Z,0
2017-04-12T02:41:37.789Z,0
2017-04-12T02:42:39.328Z,0
2017-04-12T02:43:38.094Z,0
2017-04-12T02:44:38.077Z,0
2017-04-12T02:45:38.032Z,0
2017-04-12T02:46:38.048Z,0
2017-04-12T02:47:38.042Z,0
2017-04-12T02:48:38.401Z,0
2017-04-12T02:49:38.017Z,0
2017-04-12T02:50:37.682Z,0
2017-04-12T02:51:37.831Z,0
2017-04-12T02:52:37.968Z,0
2017-04-12T02:53:37.963Z,0
2017-04-12T02:54:39.457Z,0
2017-04-12T02:55:37.938Z,0
2017-04-12T02:56:37.927Z,0
2017-04-12T02:57:38.807Z,0
2017-04-12T02:58:37.619Z,0
2017-04-12T02:59:38.127Z,0
2017-04-12T03:00:38.825Z,0
2017-04-12T03:01:37.862Z,0
2017-04-12T03:02:37.224Z,0
2017-04-12T03:03:38.431Z,0
2017-04-12T03:04:37.834Z,0
2017-04-12T03:05:37.820Z,0
2017-04-12T03:06:39.268Z,0
2017-04-12T03:07:37.791Z,0
2017-04-12T03:08:37.778Z,0
2017-04-12T03:09:39.250Z,0
2017-04-12T03:10:37.753Z,0
2017-04-12T03:11:37.746Z,0
2017-04-12T03:12:39.301Z,0
2017-04-12T03:13:37.766Z,0
2017-04-12T03:14:37.390Z,0
2017-04-12T03:15:38.880Z,0
2017-04-12T03:16:37.363Z,0
2017-04-12T03:17:37.356Z,0
2017-04-12T03:18:38.931Z,0
2017-04-12T03:19:37.655Z,0
2017-04-12T03:20:37.315Z,0
2017-04-12T03:21:38.566Z,0
2017-04-12T03:22:37.610Z,0
2017-04-12T03:23:37.277Z,0
2017-04-12T03:24:38.716Z,0
2017-04-12T03:25:37.258Z,0
2017-04-12T03:26:37.550Z,0
2017-04-12T03:27:38.789Z,0
2017-04-12T03:28:37.533Z,0
2017-04-12T03:29:37.260Z,0
2017-04-12T03:30:38.589Z,0
2017-04-12T03:31:37.492Z,0
2017-04-12T03:32:37.481Z,0
2017-04-12T03:33:38.187Z,0
2017-04-12T03:34:37.455Z,0
2017-04-12T03:35:37.127Z,0
2017-04-12T03:36:38.685Z,0
2017-04-12T03:37:37.426Z,0
2017-04-12T03:38:37.411Z,0
2017-04-12T03:39:37.402Z,0
2017-04-12T03:40:37.582Z,0
2017-04-12T03:41:37.566Z,0
2017-04-12T03:42:37.357Z,0
2017-04-12T03:43:37.357Z,0
2017-04-12T03:44:37.354Z,0
2017-04-12T03:45:36.727Z,0
2017-04-12T03:46:37.055Z,0
2017-04-12T03:47:37.674Z,0
2017-04-12T03:48:36.979Z,0
2017-04-12T03:49:37.277Z,0
2017-04-12T03:50:36.947Z,0
2017-04-12T03:51:36.994Z,0
2017-04-12T03:52:37.239Z,0
2017-04-12T03:53:37.227Z,0
2017-04-12T03:54:38.730Z,0
2017-04-12T03:55:37.197Z,0
2017-04-12T03:56:37.199Z,0
2017-04-12T03:57:37.380Z,0
2017-04-12T03:58:37.355Z,0
2017-04-12T03:59:37.146Z,0
2017-04-12T04:00:36.822Z,0
2017-04-12T04:01:37.123Z,0
2017-04-12T04:02:37.105Z,0
2017-04-12T04:03:36.790Z,0
2017-04-12T04:04:37.090Z,0
2017-04-12T04:05:37.069Z,0
2017-04-12T04:06:37.097Z,0
2017-04-12T04:07:37.049Z,0
2017-04-12T04:08:37.036Z,0
2017-04-12T04:09:37.019Z,0
2017-04-12T04:10:37.012Z,0
2017-04-12T04:11:36.994Z,0
2017-04-12T04:12:36.693Z,0
2017-04-12T04:13:36.966Z,0
2017-04-12T04:14:36.652Z,0
2017-04-12T04:15:36.940Z,0
2017-04-12T04:16:36.304Z,0
2017-04-12T04:17:36.612Z,0
2017-04-12T04:18:36.275Z,0
2017-04-12T04:19:36.894Z,0
2017-04-12T04:20:36.880Z,0
2017-04-12T04:21:36.864Z,0
2017-04-12T04:22:36.857Z,0
2017-04-12T04:23:36.533Z,0
2017-04-12T04:24:36.520Z,0
2017-04-12T04:25:36.820Z,0
2017-04-12T04:26:36.801Z,0
2017-04-12T04:27:36.800Z,0
2017-04-12T04:28:36.475Z,0
2017-04-12T04:29:36.768Z,0
2017-04-12T04:30:36.755Z,0
2017-04-12T04:31:36.750Z,0
2017-04-12T04:32:36.731Z,0
2017-04-12T04:33:36.401Z,0
2017-04-12T04:34:36.701Z,0
2017-04-12T04:35:36.693Z,0
2017-04-12T04:36:36.363Z,0
2017-04-12T04:37:36.353Z,5
2017-04-12T04:38:36.342Z,5
2017-04-12T04:39:36.643Z,5
2017-04-12T04:40:36.635Z,5
2017-04-12T04:41:36.614Z,5
2017-04-12T04:42:36.612Z,5
2017-04-12T04:43:36.285Z,5
2017-04-12T04:44:36.271Z,5
2017-04-12T04:45:35.938Z,5
2017-04-12T04:46:35.929Z,5
2017-04-12T04:47:36.545Z,5
2017-04-12T04:48:36.588Z,10
2017-04-12T04:49:36.514Z,10
2017-04-12T04:51:07.634Z,10
2017-04-12T04:51:36.495Z,10
2017-04-12T04:52:36.477Z,10
2017-04-12T04:53:36.156Z,10
2017-04-12T04:54:36.466Z,15
2017-04-12T04:55:36.130Z,15
2017-04-12T04:56:36.429Z,15
2017-04-12T04:57:36.418Z,15
2017-04-12T04:58:36.406Z,15
2017-04-12T04:59:36.080Z,15
2017-04-12T05:00:36.379Z,15
2017-04-12T05:01:35.423Z,20
2017-04-12T05:02:35.721Z,20
2017-04-12T05:03:36.339Z,20
2017-04-12T05:04:36.331Z,20
2017-04-12T05:05:36.318Z,25
2017-04-12T05:06:36.341Z,25
2017-04-12T05:07:36.291Z,25
2017-04-12T05:08:35.645Z,25
2017-04-12T05:09:35.946Z,25
2017-04-12T05:10:35.935Z,25
2017-04-12T05:11:36.255Z,25
2017-04-12T05:12:35.605Z,25
2017-04-12T05:13:35.896Z,25
2017-04-12T05:14:36.204Z,25
2017-04-12T05:15:36.208Z,25
2017-04-12T05:16:35.868Z,25
2017-04-12T05:17:36.156Z,25
2017-04-12T05:18:36.152Z,30
2017-04-12T05:19:36.142Z,30
2017-04-12T05:20:35.816Z,35
2017-04-12T05:21:36.115Z,35
2017-04-12T05:22:36.106Z,35
2017-04-12T05:23:36.090Z,35
2017-04-12T05:24:35.763Z,35
2017-04-12T05:25:35.751Z,35
2017-04-12T05:26:36.050Z,30
2017-04-12T05:27:35.724Z,30
2017-04-12T05:28:36.036Z,30
2017-04-12T05:29:36.013Z,30
2017-04-12T05:30:35.691Z,35
2017-04-12T05:31:35.679Z,40
2017-04-12T05:32:35.663Z,40
2017-04-12T05:33:35.649Z,45
2017-04-12T05:34:35.643Z,45
2017-04-12T05:35:35.943Z,45
2017-04-12T05:36:35.620Z,45
2017-04-12T05:37:35.910Z,50
2017-04-12T05:38:35.593Z,50
2017-04-12T05:39:35.890Z,50
2017-04-12T05:40:35.558Z,50
2017-04-12T05:41:35.543Z,50
2017-04-12T05:42:35.852Z,50
2017-04-12T05:43:35.845Z,50
2017-04-12T05:44:35.827Z,50
2017-04-12T05:45:35.495Z,50
2017-04-12T05:46:35.495Z,45
2017-04-12T05:47:35.793Z,45
2017-04-12T05:48:35.782Z,45
2017-04-12T05:49:35.766Z,45
2017-04-12T05:50:35.753Z,40
2017-04-12T05:51:35.422Z,45
2017-04-12T05:52:35.725Z,45
2017-04-12T05:53:35.413Z,50
2017-04-12T05:54:35.384Z,50
2017-04-12T05:55:35.377Z,50
2017-04-12T05:56:35.677Z,55
2017-04-12T05:57:35.662Z,55
2017-04-12T05:58:35.659Z,55
2017-04-12T05:59:35.648Z,60
2017-04-12T06:00:35.313Z,60
2017-04-12T06:01:35.296Z,65
2017-04-12T06:02:35.602Z,70
2017-04-12T06:03:35.592Z,75
2017-04-12T06:04:35.592Z,75
2017-04-12T06:05:35.253Z,80
2017-04-12T06:06:35.235Z,80
2017-04-12T06:07:35.228Z,85
2017-04-12T06:08:35.213Z,90
2017-04-12T06:09:35.511Z,95
2017-04-12T06:10:35.501Z,105
2017-04-12T06:11:35.486Z,105
2017-04-12T06:12:34.847Z,100
2017-04-12T06:13:35.467Z,100
2017-04-12T06:14:35.144Z,100
2017-04-12T06:15:35.126Z,100
2017-04-12T06:16:35.422Z,105
2017-04-12T06:17:34.791Z,100
2017-04-12T06:18:35.098Z,95
2017-04-12T06:19:34.772Z,90
2017-04-12T06:20:35.065Z,90
2017-04-12T06:21:35.368Z,100
2017-04-12T06:22:34.722Z,110
2017-04-12T06:23:35.337Z,110
2017-04-12T06:24:35.021Z,115
2017-04-12T06:25:35.319Z,115
2017-04-12T06:26:34.674Z,115
2017-04-12T06:27:34.991Z,120
2017-04-12T06:28:35.286Z,120
2017-04-12T06:29:35.266Z,120
2017-04-12T06:30:34.631Z,115
2017-04-12T06:31:34.927Z,115
2017-04-12T06:32:35.231Z,125
2017-04-12T06:33:35.221Z,140
2017-04-12T06:34:34.895Z,155
2017-04-12T06:35:34.881Z,160
2017-04-12T06:36:34.869Z,160
2017-04-12T06:37:34.856Z,155
2017-04-12T06:38:34.852Z,150
2017-04-12T06:39:35.143Z,150
2017-04-12T06:40:35.131Z,145
2017-04-12T06:41:34.489Z,155
2017-04-12T06:42:35.108Z,170
2017-04-12T06:43:35.101Z,175
2017-04-12T06:44:35.089Z,170
2017-04-12T06:45:35.088Z,160
2017-04-12T06:46:35.065Z,155
2017-04-12T06:47:35.049Z,150
2017-04-12T06:48:35.048Z,145
2017-04-12T06:49:35.035Z,125
2017-04-12T06:50:35.018Z,115
2017-04-12T06:51:34.774Z,110
2017-04-12T06:52:34.991Z,115
2017-04-12T06:53:34.675Z,125
2017-04-12T06:54:34.972Z,135
2017-04-12T06:55:34.652Z,140
2017-04-12T06:56:34.945Z,135
2017-04-12T06:57:34.617Z,125
2017-04-12T06:58:34.615Z,130
2017-04-12T06:59:34.902Z,135
2017-04-12T07:00:34.901Z,135
2017-04-12T07:01:34.885Z,140
2017-04-12T07:02:34.879Z,145
2017-04-12T07:03:34.863Z,155
2017-04-12T07:04:34.894Z,160
2017-04-12T07:05:34.226Z,170
2017-04-12T07:06:34.512Z,170
2017-04-12T07:07:34.825Z,160
2017-04-12T07:08:34.808Z,155
2017-04-12T07:09:34.159Z,140
2017-04-12T07:10:34.148Z,140
2017-04-12T07:11:34.769Z,140
2017-04-12T07:12:34.752Z,150
2017-04-12T07:13:34.751Z,165
2017-04-12T07:14:34.102Z,175
2017-04-12T07:15:34.732Z,185
2017-04-12T07:16:34.706Z,195
2017-04-12T07:17:34.705Z,205
2017-04-12T07:18:34.697Z,210
2017-04-12T07:19:34.679Z,210
2017-04-12T07:20:34.352Z,190
2017-04-12T07:21:34.652Z,165
2017-04-12T07:22:34.646Z,135
2017-04-12T07:23:34.322Z,100
2017-04-12T07:24:34.617Z,90
2017-04-12T07:25:34.291Z,95
2017-04-12T07:26:34.281Z,140
2017-04-12T07:27:34.274Z,170
2017-04-12T07:28:34.572Z,175
2017-04-12T07:29:33.929Z,170
2017-04-12T07:30:34.554Z,160
2017-04-12T07:31:34.226Z,155
2017-04-12T07:32:34.533Z,170
2017-04-12T07:33:34.201Z,185
2017-04-12T07:34:34.193Z,200
2017-04-12T07:35:34.498Z,210
2017-04-12T07:36:33.850Z,225
2017-04-12T07:37:34.480Z,240
2017-04-12T07:38:34.461Z,235
2017-04-12T07:39:34.450Z,220
2017-04-12T07:40:34.436Z,205
2017-04-12T07:41:34.111Z,200
2017-04-12T07:42:34.099Z,215
2017-04-12T07:43:34.103Z,240
2017-04-12T07:44:34.388Z,265
2017-04-12T07:45:34.060Z,295
2017-04-12T07:46:34.054Z,315
2017-04-12T07:47:33.732Z,295
2017-04-12T07:48:34.035Z,270
2017-04-12T07:49:33.394Z,235
2017-04-12T07:50:33.695Z,205
2017-04-12T07:51:33.691Z,200
2017-04-12T07:52:33.673Z,195
2017-04-12T07:53:33.663Z,195
2017-04-12T07:54:34.285Z,200
2017-04-12T07:55:34.274Z,205
2017-04-12T07:56:33.948Z,225
2017-04-12T07:57:33.935Z,260
2017-04-12T07:58:33.927Z,290
2017-04-12T07:59:33.916Z,315
2017-04-12T08:00:34.223Z,335
2017-04-12T08:01:33.890Z,355
2017-04-12T08:02:33.887Z,400
2017-04-12T08:03:33.882Z,395
2017-04-12T08:04:33.544Z,375
2017-04-12T08:05:33.537Z,350
2017-04-12T08:06:33.838Z,325
2017-04-12T08:07:33.881Z,330
2017-04-12T08:08:33.509Z,350
2017-04-12T08:09:33.817Z,390
2017-04-12T08:10:34.116Z,390
2017-04-12T08:11:33.791Z,390
2017-04-12T08:12:33.782Z,415
2017-04-12T08:13:34.082Z,420
2017-04-12T08:14:34.080Z,405
2017-04-12T08:15:33.753Z,420
2017-04-12T08:16:33.749Z,425
2017-04-12T08:17:33.733Z,445
2017-04-12T08:18:34.040Z,480
2017-04-12T08:19:33.398Z,470
2017-04-12T08:20:33.388Z,435
2017-04-12T08:21:33.697Z,380
2017-04-12T08:22:33.691Z,355
2017-04-12T08:23:33.055Z,355
2017-04-12T08:24:33.665Z,365
2017-04-12T08:25:32.717Z,365
2017-04-12T08:26:33.649Z,400
2017-04-12T08:27:33.011Z,415
2017-04-12T08:28:33.318Z,385
2017-04-12T08:29:33.939Z,320
2017-04-12T08:30:33.300Z,270
2017-04-12T08:31:33.605Z,255
2017-04-12T08:32:33.912Z,250
2017-04-12T08:33:33.592Z,260
2017-04-12T08:34:32.949Z,285
2017-04-12T08:35:33.572Z,310
2017-04-12T08:36:33.561Z,335
2017-04-12T08:37:33.870Z,355
2017-04-12T08:38:33.869Z,365
2017-04-12T08:39:33.533Z,365
2017-04-12T08:40:33.530Z,355
2017-04-12T08:41:33.833Z,360
2017-04-12T08:42:33.508Z,370
2017-04-12T08:43:33.506Z,385
2017-04-12T08:44:33.806Z,390
2017-04-12T08:45:33.492Z,400
2017-04-12T08:46:33.474Z,420
2017-04-12T08:47:33.484Z,465
2017-04-12T08:48:33.462Z,480
2017-04-12T08:49:33.764Z,475
2017-04-12T08:50:33.765Z,440
2017-04-12T08:51:33.147Z,365
2017-04-12T08:52:33.743Z,300
2017-04-12T08:53:33.732Z,275
2017-04-12T08:54:33.412Z,285
2017-04-12T08:55:33.405Z,315
2017-04-12T08:56:33.390Z,370
2017-04-12T08:57:32.751Z,410
2017-04-12T08:58:33.057Z,425
2017-04-12T08:59:33.050Z,470
2017-04-12T09:00:33.360Z,520
2017-04-12T09:01:33.344Z,535
2017-04-12T09:02:33.336Z,490
2017-04-12T09:03:32.701Z,410
2017-04-12T09:04:33.063Z,375
2017-04-12T09:05:33.002Z,345
2017-04-12T09:06:32.994Z,350
2017-04-12T09:07:33.301Z,400
2017-04-12T09:08:32.972Z,375
2017-04-12T09:09:32.653Z,290
2017-04-12T09:10:33.594Z,250
2017-04-12T09:11:33.269Z,260
2017-04-12T09:12:32.944Z,295
2017-04-12T09:13:32.626Z,365
2017-04-12T09:14:33.248Z,445
2017-04-12T09:15:33.553Z,485
2017-04-12T09:16:33.228Z,480
2017-04-12T09:17:33.534Z,480
2017-04-12T09:18:33.213Z,485
2017-04-12T09:19:33.219Z,455
2017-04-12T09:20:33.505Z,435
2017-04-12T09:21:33.502Z,430
2017-04-12T09:22:33.494Z,445
2017-04-12T09:23:33.172Z,465
2017-04-12T09:24:33.167Z,475
2017-04-12T09:25:33.153Z,470
2017-04-12T09:26:33.149Z,475
2017-04-12T09:27:33.143Z,475
2017-04-12T09:28:33.137Z,465
2017-04-12T09:29:33.128Z,460
2017-04-12T09:30:33.121Z,475
2017-04-12T09:31:32.799Z,485
2017-04-12T09:32:32.791Z,480
2017-04-12T09:33:33.093Z,495
2017-04-12T09:34:32.460Z,515
2017-04-12T09:35:32.779Z,535
2017-04-12T09:36:33.074Z,530
2017-04-12T09:37:33.382Z,520
2017-04-12T09:38:33.401Z,515
2017-04-12T09:39:32.756Z,520
2017-04-12T09:40:32.777Z,515
2017-04-12T09:41:32.726Z,495
2017-04-12T09:42:33.034Z,480
2017-04-12T09:43:32.715Z,465
2017-04-12T09:44:32.729Z,470
2017-04-12T09:45:33.015Z,480
2017-04-12T09:46:32.375Z,490
2017-04-12T09:47:32.996Z,505
2017-04-12T09:48:32.990Z,520
2017-04-12T09:49:32.983Z,510
2017-04-12T09:50:32.672Z,520
2017-04-12T09:51:32.657Z,515
2017-04-12T09:52:33.281Z,515
2017-04-12T09:53:33.274Z,520
2017-04-12T09:54:32.951Z,520
2017-04-12T09:55:32.948Z,525
2017-04-12T09:56:32.941Z,530
2017-04-12T09:57:32.931Z,535
2017-04-12T09:58:33.293Z,540
2017-04-12T09:59:33.236Z,545
2017-04-12T10:00:33.232Z,555
2017-04-12T10:01:32.902Z,560
2017-04-12T10:02:32.902Z,545
2017-04-12T10:03:32.893Z,530
2017-04-12T10:04:33.208Z,515
2017-04-12T10:05:32.892Z,480
2017-04-12T10:06:32.885Z,465
2017-04-12T10:07:32.868Z,455
2017-04-12T10:08:32.865Z,480
2017-04-12T10:09:32.859Z,510
2017-04-12T10:10:32.539Z,520
2017-04-12T10:11:32.531Z,530
2017-04-12T10:12:32.890Z,525
2017-04-12T10:13:32.849Z,520
2017-04-12T10:14:32.833Z,500
2017-04-12T10:15:32.515Z,490
2017-04-12T10:16:32.817Z,495
2017-04-12T10:17:33.130Z,530
2017-04-12T10:18:32.835Z,545
2017-04-12T10:19:32.491Z,545
2017-04-12T10:20:32.484Z,535
2017-04-12T10:21:33.110Z,540
2017-04-12T10:22:33.106Z,540
2017-04-12T10:23:32.808Z,525
2017-04-12T10:24:33.088Z,515
2017-04-12T10:25:32.153Z,505
2017-04-12T10:26:32.766Z,500
2017-04-12T10:27:32.131Z,510
2017-04-12T10:28:32.439Z,520
2017-04-12T10:29:32.436Z,515
2017-04-12T10:30:33.058Z,520
2017-04-12T10:31:32.428Z,525
2017-04-12T10:32:33.056Z,525
2017-04-12T10:33:33.049Z,525
2017-04-12T10:34:33.054Z,525
2017-04-12T10:35:32.094Z,525
2017-04-12T10:36:33.033Z,540
2017-04-12T10:37:33.023Z,555
2017-04-12T10:38:32.709Z,550
2017-04-12T10:39:32.694Z,545
2017-04-12T10:40:32.696Z,535
2017-04-12T10:41:33.006Z,525
2017-04-12T10:42:32.683Z,520
2017-04-12T10:43:32.993Z,520
2017-04-12T10:44:32.045Z,520
2017-04-12T10:45:32.351Z,515
2017-04-12T10:46:32.669Z,510
2017-04-12T10:47:32.658Z,505
2017-04-12T10:48:32.018Z,500
2017-04-12T10:49:32.344Z,510
2017-04-12T10:50:32.640Z,515
2017-04-12T10:51:32.327Z,520
2017-04-12T10:52:32.637Z,525
2017-04-12T10:53:32.941Z,515
2017-04-12T10:54:31.993Z,515
2017-04-12T10:55:32.304Z,510
2017-04-12T10:56:32.612Z,510
2017-04-12T10:57:32.936Z,500
2017-04-12T10:58:32.924Z,490
2017-04-12T10:59:32.910Z,485
2017-04-12T11:00:32.609Z,480
2017-04-12T11:01:32.796Z,485
2017-04-12T11:02:32.585Z,490
2017-04-12T11:03:32.889Z,495
2017-04-12T11:04:32.587Z,495
2017-04-12T11:05:32.256Z,495
2017-04-12T11:06:32.562Z,500
2017-04-12T11:07:32.871Z,505
2017-04-12T11:08:32.237Z,515
2017-04-12T11:09:32.551Z,520
2017-04-12T11:10:32.228Z,515
2017-04-12T11:11:32.542Z,505
2017-04-12T11:12:32.857Z,495
2017-04-12T11:13:32.531Z,495
2017-04-12T11:14:32.524Z,500
2017-04-12T11:15:31.891Z,510
2017-04-12T11:16:31.889Z,515
2017-04-12T11:17:31.881Z,515
2017-04-12T11:18:31.881Z,515
2017-04-12T11:19:32.823Z,510
2017-04-12T11:20:32.821Z,505
2017-04-12T11:21:32.811Z,510
2017-04-12T11:22:32.180Z,510
2017-04-12T11:23:32.483Z,520
2017-04-12T11:24:32.192Z,525
2017-04-12T11:25:32.165Z,530
2017-04-12T11:26:32.787Z,535
2017-04-12T11:27:31.842Z,535
2017-04-12T11:28:32.489Z,535
2017-04-12T11:29:32.187Z,530
2017-04-12T11:30:32.449Z,520
2017-04-12T11:31:32.448Z,520
2017-04-12T11:32:32.445Z,510
2017-04-12T11:33:32.440Z,505
2017-04-12T11:34:32.751Z,505
2017-04-12T11:35:32.745Z,495
2017-04-12T11:36:32.740Z,485
2017-04-12T11:37:32.421Z,470
2017-04-12T11:38:32.414Z,465
2017-04-12T11:39:32.414Z,470
2017-04-12T11:40:32.724Z,460
2017-04-12T11:41:32.723Z,435
2017-04-12T11:42:32.712Z,415
2017-04-12T11:43:32.083Z,395
2017-04-12T11:44:32.078Z,390
2017-04-12T11:45:32.382Z,390
2017-04-12T11:46:32.386Z,395
2017-04-12T11:47:32.695Z,420
2017-04-12T11:48:32.377Z,430
2017-04-12T11:49:32.373Z,425
2017-04-12T11:50:32.052Z,425
2017-04-12T11:51:32.672Z,420
2017-04-12T11:52:32.354Z,415
2017-04-12T11:53:32.663Z,410
2017-04-12T11:54:32.665Z,400
2017-04-12T11:55:32.347Z,390
2017-04-12T11:56:32.654Z,385
2017-04-12T11:57:32.337Z,370
2017-04-12T11:58:32.641Z,360
2017-04-12T11:59:32.634Z,360
2017-04-12T12:00:32.631Z,375
2017-04-12T12:01:32.316Z,390
2017-04-12T12:02:32.307Z,400
2017-04-12T12:03:32.303Z,410
2017-04-12T12:04:32.615Z,425
2017-04-12T12:05:32.308Z,440
2017-04-12T12:06:32.609Z,455
2017-04-12T12:07:32.602Z,470
2017-04-12T12:08:31.964Z,470
2017-04-12T12:09:32.277Z,465
2017-04-12T12:10:32.585Z,460
2017-04-12T12:11:32.270Z,445
2017-04-12T12:12:32.260Z,435
2017-04-12T12:13:32.257Z,430
2017-04-12T12:14:32.254Z,430
2017-04-12T12:15:32.247Z,430
2017-04-12T12:16:32.562Z,435
2017-04-12T12:17:31.921Z,445
2017-04-12T12:18:32.232Z,465
2017-04-12T12:19:32.590Z,475
2017-04-12T12:20:32.228Z,485
2017-04-12T12:21:32.531Z,490
2017-04-12T12:22:32.535Z,485
2017-04-12T12:23:31.896Z,475
2017-04-12T12:24:32.201Z,465
2017-04-12T12:25:32.196Z,460
2017-04-12T12:26:32.511Z,460
2017-04-12T12:27:32.521Z,460
2017-04-12T12:28:32.189Z,460
2017-04-12T12:29:32.192Z,465
2017-04-12T12:30:32.490Z,470
2017-04-12T12:31:32.169Z,475
2017-04-12T12:32:31.852Z,480
2017-04-12T12:33:32.163Z,475
2017-04-12T12:34:32.165Z,465
2017-04-12T12:35:32.148Z,455
2017-04-12T12:36:32.146Z,450
2017-04-12T12:37:32.146Z,450
2017-04-12T12:38:31.823Z,455
2017-04-12T12:39:32.167Z,450
2017-04-12T12:40:32.450Z,450
2017-04-12T12:41:32.442Z,460
2017-04-12T12:42:31.494Z,465
2017-04-12T12:43:32.428Z,470
2017-04-12T12:44:31.796Z,470
2017-04-12T12:45:32.419Z,470
2017-04-12T12:46:32.413Z,470
2017-04-12T12:47:31.780Z,470
2017-04-12T12:48:31.775Z,465
2017-04-12T12:49:32.401Z,455
2017-04-12T12:50:32.394Z,450
2017-04-12T12:51:32.390Z,440
2017-04-12T12:52:31.451Z,440
2017-04-12T12:53:31.445Z,440
2017-04-12T12:54:32.377Z,445
2017-04-12T12:55:32.374Z,445
2017-04-12T12:56:32.372Z,445
2017-04-12T12:57:32.054Z,440
2017-04-12T12:58:31.736Z,430
2017-04-12T12:59:32.043Z,420
2017-04-12T13:00:32.047Z,410
2017-04-12T13:01:32.351Z,405
2017-04-12T13:02:32.343Z,390
2017-04-12T13:03:32.338Z,380
2017-04-12T13:04:32.382Z,370
2017-04-12T13:05:32.015Z,350
2017-04-12T13:06:32.324Z,345
2017-04-12T13:07:32.003Z,340
2017-04-12T13:08:31.690Z,340
2017-04-12T13:09:32.002Z,335
2017-04-12T13:10:32.305Z,330
2017-04-12T13:11:32.299Z,325
2017-04-12T13:12:32.299Z,320
2017-04-12T13:13:31.983Z,320
2017-04-12T13:14:31.970Z,320
2017-04-12T13:15:31.972Z,320
2017-04-12T13:16:31.966Z,315
2017-04-12T13:17:31.647Z,315
2017-04-12T13:18:31.955Z,325
2017-04-12T13:19:32.302Z,325
2017-04-12T13:20:32.261Z,335
2017-04-12T13:21:32.260Z,345
2017-04-12T13:22:32.250Z,345
2017-04-12T13:23:31.932Z,355
2017-04-12T13:24:31.925Z,360
2017-04-12T13:25:32.238Z,360
2017-04-12T13:26:31.914Z,355
2017-04-12T13:27:32.227Z,345
2017-04-12T13:28:31.277Z,340
2017-04-12T13:29:31.914Z,325
2017-04-12T13:30:31.584Z,315
2017-04-12T13:31:31.894Z,310
2017-04-12T13:32:32.209Z,315
2017-04-12T13:33:32.196Z,325
2017-04-12T13:34:32.191Z,335
2017-04-12T13:35:32.192Z,335
2017-04-12T13:36:32.183Z,325
2017-04-12T13:37:32.178Z,315
2017-04-12T13:38:31.543Z,310
2017-04-12T13:39:32.167Z,305
2017-04-12T13:40:32.165Z,315
2017-04-12T13:41:31.843Z,330
2017-04-12T13:42:31.520Z,330
2017-04-12T13:43:32.148Z,330
2017-04-12T13:44:31.832Z,335
2017-04-12T13:45:31.826Z,335
2017-04-12T13:46:31.817Z,340
2017-04-12T13:47:31.813Z,345
2017-04-12T13:48:32.120Z,350
2017-04-12T13:49:32.116Z,355
2017-04-12T13:50:31.796Z,350
2017-04-12T13:51:32.107Z,345
2017-04-12T13:52:32.107Z,345
2017-04-12T13:53:32.097Z,340
2017-04-12T13:54:32.091Z,330
2017-04-12T13:55:31.770Z,320
2017-04-12T13:56:31.772Z,310
2017-04-12T13:57:32.080Z,295
2017-04-12T13:58:32.069Z,285
2017-04-12T13:59:32.064Z,280
2017-04-12T14:00:32.073Z,275
2017-04-12T14:01:32.057Z,275
2017-04-12T14:02:31.422Z,275
2017-04-12T14:03:32.046Z,275
2017-04-12T14:04:31.725Z,275
2017-04-12T14:05:32.049Z,260
2017-04-12T14:06:32.030Z,245
2017-04-12T14:07:32.021Z,235
2017-04-12T14:08:31.733Z,225